createdAt,value
2022-11-18T00:00:28.467Z,99416.94
2022-11-18T00:02:59.722Z,99402.97
2022-11-18T00:05:31.177Z,99411.72
2022-11-18T00:08:02.459Z,99402.97
2022-11-18T00:10:33.900Z,99414.31
2022-11-18T00:13:24.192Z,99420.44
2022-11-18T00:16:07.584Z,99413.47
2022-11-18T00:18:39.261Z,99424.88
2022-11-18T00:21:12.120Z,99427.47
2022-11-18T00:23:43.397Z,99423.97
2022-11-18T00:26:14.982Z,99428.38
2022-11-18T00:28:46.241Z,99432.72
2022-11-18T00:31:17.615Z,99431.00
2022-11-18T00:33:48.871Z,99433.66
2022-11-18T00:36:20.185Z,99430.16
2022-11-18T00:38:51.436Z,99452.88
2022-11-18T00:41:22.773Z,99436.31
2022-11-18T00:43:54.117Z,99434.63
2022-11-18T00:46:25.461Z,99437.19
2022-11-18T00:48:56.695Z,99431.09
2022-11-18T00:51:27.957Z,99438.09
2022-11-18T00:53:59.248Z,99439.84
2022-11-18T00:56:30.540Z,99450.31
2022-11-18T00:59:01.913Z,99458.16
2022-11-18T01:01:33.625Z,99452.94
2022-11-18T01:04:05.065Z,99440.75
2022-11-18T01:06:36.338Z,99461.72
2022-11-18T01:09:07.643Z,99456.50
2022-11-18T01:11:57.636Z,99460.03
2022-11-18T01:14:29.068Z,99460.03
2022-11-18T01:17:00.464Z,99460.91
2022-11-18T01:19:31.732Z,99447.81
2022-11-18T01:22:03.611Z,99464.41
2022-11-18T01:24:35.010Z,99473.19
2022-11-18T01:27:06.346Z,99476.69
2022-11-18T01:29:37.620Z,99480.19
2022-11-18T01:32:23.990Z,99481.94
2022-11-18T01:34:56.483Z,99487.16
2022-11-18T01:37:27.785Z,99484.53
2022-11-18T01:39:59.036Z,99496.78
2022-11-18T01:42:30.331Z,99495.03
2022-11-18T01:45:05.140Z,99486.31
2022-11-18T01:47:46.663Z,99484.56
2022-11-18T01:50:21.424Z,99483.72
2022-11-18T01:52:57.823Z,99484.59
2022-11-18T01:55:34.121Z,99484.66
2022-11-18T01:58:15.764Z,99489.88
2022-11-18T02:00:47.142Z,99496.88
2022-11-18T02:03:18.747Z,99509.09
2022-11-18T02:05:53.704Z,99499.50
2022-11-18T02:08:25.728Z,99503.88
2022-11-18T02:10:57.093Z,99500.38
2022-11-18T02:13:28.960Z,99501.34
2022-11-18T02:16:19.040Z,99505.72
2022-11-18T02:19:02.693Z,99499.56
2022-11-18T02:21:45.354Z,99512.69
2022-11-18T02:24:58.592Z,99517.06
2022-11-18T02:27:55.717Z,99512.72
2022-11-18T02:30:39.145Z,99522.31
2022-11-18T02:33:17.932Z,99530.09
2022-11-18T02:35:56.613Z,99522.28
2022-11-18T02:39:05.320Z,99536.22
2022-11-18T02:41:39.513Z,99532.78
2022-11-18T02:44:16.222Z,99533.59
2022-11-18T02:46:52.991Z,99536.19
2022-11-18T02:49:34.670Z,99537.94
2022-11-18T02:52:09.048Z,99532.69
2022-11-18T02:54:43.539Z,99533.59
2022-11-18T02:57:15.921Z,99532.72
2022-11-18T02:59:47.358Z,99530.97
2022-11-18T03:02:23.155Z,99523.13
2022-11-18T03:04:57.658Z,99530.16
2022-11-18T03:07:36.412Z,99527.53
2022-11-18T03:10:07.903Z,99531.94
2022-11-18T03:13:20.454Z,99527.59
2022-11-18T03:16:16.605Z,99531.09
2022-11-18T03:19:01.643Z,99538.06
2022-11-18T03:22:02.183Z,99531.09
2022-11-18T03:24:39.712Z,99547.69
2022-11-18T03:27:18.431Z,99538.09
2022-11-18T03:29:59.064Z,99538.97
2022-11-18T03:32:36.246Z,99548.56
2022-11-18T03:35:11.235Z,99560.78
2022-11-18T03:37:44.419Z,99543.34
2022-11-18T03:40:21.978Z,99559.91
2022-11-18T03:42:59.857Z,99562.56
2022-11-18T03:45:37.122Z,99559.94
2022-11-18T03:48:16.372Z,99560.81
2022-11-18T03:50:56.195Z,99566.94
2022-11-18T03:53:30.851Z,99569.56
2022-11-18T03:56:12.863Z,99573.06
2022-11-18T03:59:00.407Z,99577.44
2022-11-18T04:01:38.965Z,99587.94
2022-11-18T04:04:11.240Z,99580.06
2022-11-18T04:06:48.601Z,99588.81
2022-11-18T04:09:33.429Z,99580.97
2022-11-18T04:12:10.883Z,99585.34
2022-11-18T04:14:44.316Z,99588.84
2022-11-18T04:17:19.681Z,99590.56
2022-11-18T04:19:51.037Z,99583.59
2022-11-18T04:22:22.324Z,99596.66
2022-11-18T04:24:53.580Z,99580.09
2022-11-18T04:27:24.913Z,99600.16
2022-11-18T04:29:56.228Z,99597.53
2022-11-18T04:32:27.495Z,99594.94
2022-11-18T04:34:59.100Z,99601.94
2022-11-18T04:37:30.430Z,99614.16
2022-11-18T04:40:01.792Z,99629.84
2022-11-18T04:42:33.051Z,99616.78
2022-11-18T04:45:05.398Z,99605.44
2022-11-18T04:47:37.298Z,99629.88
2022-11-18T04:50:08.998Z,99636.84
2022-11-18T04:52:40.320Z,99633.38
2022-11-18T04:55:11.592Z,99641.22
2022-11-18T04:57:42.838Z,99649.94
2022-11-18T05:00:14.558Z,99656.06
2022-11-18T05:02:45.943Z,99651.72
2022-11-18T05:05:17.273Z,99654.34
2022-11-18T05:07:48.695Z,99657.81
2022-11-18T05:10:19.992Z,99650.84
2022-11-18T05:12:52.328Z,99664.81
2022-11-18T05:15:24.485Z,99663.94
2022-11-18T05:17:59.256Z,99655.19
2022-11-18T05:20:30.838Z,99657.81
2022-11-18T05:23:02.169Z,99670.91
2022-11-18T05:25:35.533Z,99665.69
2022-11-18T05:28:06.869Z,99669.19
2022-11-18T05:30:38.224Z,99682.28
2022-11-18T05:33:09.555Z,99687.50
2022-11-18T05:35:40.904Z,99684.91
2022-11-18T05:38:12.286Z,99691.00
2022-11-18T05:40:43.704Z,99688.41
2022-11-18T05:43:15.064Z,99686.66
2022-11-18T05:45:46.701Z,99691.88
2022-11-18T05:48:18.761Z,99675.31
2022-11-18T05:50:51.967Z,99696.25
2022-11-18T05:53:24.800Z,99691.91
2022-11-18T05:56:07.381Z,99694.53
2022-11-18T05:58:38.657Z,99705.00
2022-11-18T06:01:11.936Z,99697.16
2022-11-18T06:03:43.765Z,99705.88
2022-11-18T06:06:17.631Z,99704.16
2022-11-18T06:09:10.569Z,99699.78
2022-11-18T06:11:46.566Z,99710.25
2022-11-18T06:14:24.792Z,99713.75
2022-11-18T06:17:02.162Z,99714.63
2022-11-18T06:19:34.088Z,99712.00
2022-11-18T06:22:06.596Z,99723.34
2022-11-18T06:24:38.662Z,99724.22
2022-11-18T06:27:10.564Z,99723.34
2022-11-18T06:29:41.904Z,99722.50
2022-11-18T06:32:13.304Z,99729.47
2022-11-18T06:34:44.563Z,99745.19
2022-11-18T06:37:18.125Z,99744.31
2022-11-18T06:39:49.517Z,99756.53
2022-11-18T06:42:39.323Z,99760.03
2022-11-18T06:45:10.894Z,99764.38
2022-11-18T06:47:42.344Z,99760.03
2022-11-18T06:50:13.735Z,99774.00
2022-11-18T06:52:45.362Z,99780.09
2022-11-18T06:55:16.744Z,99768.75
2022-11-18T06:57:48.052Z,99785.31
2022-11-18T07:00:19.719Z,99776.59
2022-11-18T07:02:51.045Z,99787.06
2022-11-18T07:05:22.508Z,99782.69
2022-11-18T07:07:53.908Z,99799.28
2022-11-18T07:10:25.471Z,99800.16
2022-11-18T07:12:56.720Z,99798.41
2022-11-18T07:15:28.016Z,99797.53
2022-11-18T07:17:59.364Z,99810.59
2022-11-18T07:20:30.693Z,99829.78
2022-11-18T07:23:02.035Z,99840.28
2022-11-18T07:25:33.390Z,99834.16
2022-11-18T07:28:04.839Z,99847.25
2022-11-18T07:30:36.244Z,99842.88
2022-11-18T07:33:07.533Z,99856.84
2022-11-18T07:35:38.916Z,99854.22
2022-11-18T07:38:10.336Z,99851.59
2022-11-18T07:40:41.674Z,99858.59
2022-11-18T07:43:13.046Z,99862.06
2022-11-18T07:45:44.404Z,99879.50
2022-11-18T07:48:15.770Z,99875.16
2022-11-18T07:50:47.461Z,99875.16
2022-11-18T07:53:18.820Z,99880.38
2022-11-18T07:55:50.184Z,99879.50
2022-11-18T07:58:21.551Z,99876.88
2022-11-18T08:00:52.884Z,99881.25
2022-11-18T08:03:27.761Z,99876.91
2022-11-18T08:06:00.143Z,99883.03
2022-11-18T08:08:31.847Z,99882.16
2022-11-18T08:11:06.240Z,99904.00
2022-11-18T08:13:37.959Z,99893.53
2022-11-18T08:16:20.928Z,99908.34
2022-11-18T08:18:52.987Z,99904.88
2022-11-18T08:21:24.465Z,99910.97
2022-11-18T08:23:58.024Z,99910.09
2022-11-18T08:26:29.488Z,99909.22
2022-11-18T08:29:00.912Z,99904.84
2022-11-18T08:31:32.447Z,99912.69
2022-11-18T08:34:07.512Z,99908.34
2022-11-18T08:36:39.241Z,99910.94
2022-11-18T08:39:12.125Z,99910.94
2022-11-18T08:41:44.108Z,99928.38
2022-11-18T08:44:16.781Z,99927.50
2022-11-18T08:46:48.112Z,99928.38
2022-11-18T08:49:19.838Z,99932.78
2022-11-18T08:51:51.517Z,99931.91
2022-11-18T08:54:22.971Z,99930.16
2022-11-18T08:56:54.329Z,99936.28
2022-11-18T08:59:25.899Z,99935.41
2022-11-18T09:01:57.281Z,99940.66
2022-11-18T09:04:28.677Z,99950.25
2022-11-18T09:07:00.092Z,99944.97
2022-11-18T09:09:31.612Z,99957.19
2022-11-18T09:12:03.082Z,99962.44
2022-11-18T09:17:26.027Z,99966.81
2022-11-18T09:19:57.356Z,99972.03
2022-11-18T09:22:28.708Z,99980.75
2022-11-18T09:25:00.034Z,99985.97
2022-11-18T09:27:31.392Z,99977.22
2022-11-18T09:30:02.884Z,99981.56
2022-11-18T09:32:34.485Z,99979.84
2022-11-18T09:35:05.873Z,99991.19
2022-11-18T09:37:37.181Z,99984.19
2022-11-18T09:40:17.962Z,99988.56
2022-11-18T09:43:15.538Z,99996.41
2022-11-18T09:45:52.172Z,99998.16
2022-11-18T09:48:46.341Z,100006.88
2022-11-18T09:51:17.615Z,99998.19
2022-11-18T09:53:49.250Z,99995.59
2022-11-18T09:56:22.092Z,99996.47
2022-11-18T09:58:53.465Z,100005.25
2022-11-18T10:01:27.720Z,100010.47
2022-11-18T10:03:59.309Z,100007.00
2022-11-18T10:06:34.059Z,100012.25
2022-11-18T10:09:39.239Z,100019.22
2022-11-18T10:12:40.635Z,100022.69
2022-11-18T10:15:35.740Z,100021.78
2022-11-18T10:18:44.915Z,100029.63
2022-11-18T10:21:24.435Z,100036.53
2022-11-18T10:24:28.544Z,100040.91
2022-11-18T10:27:00.553Z,100038.31
2022-11-18T10:29:32.818Z,100040.06
2022-11-18T10:32:12.276Z,100049.69
2022-11-18T10:34:52.490Z,100040.94
2022-11-18T10:38:00.617Z,100058.38
2022-11-18T10:40:27.777Z,100064.50
2022-11-18T10:42:59.613Z,100060.13
2022-11-18T10:45:32.493Z,100064.53
2022-11-18T10:48:16.500Z,100068.03
2022-11-18T10:50:55.583Z,100072.41
2022-11-18T10:53:32.122Z,100068.06
2022-11-18T10:56:15.937Z,100061.94
2022-11-18T10:58:49.918Z,100079.44
2022-11-18T11:01:24.287Z,100078.53
2022-11-18T11:04:00.201Z,100075.03
2022-11-18T11:06:34.186Z,100078.53
2022-11-18T11:09:23.331Z,100085.56
2022-11-18T11:12:13.160Z,100067.22
2022-11-18T11:14:53.558Z,100080.34
2022-11-18T11:18:10.490Z,100075.13
2022-11-18T11:20:41.854Z,100083.81
2022-11-18T11:23:18.993Z,100090.81
2022-11-18T11:28:58.125Z,100088.22
2022-11-18T11:31:50.923Z,100089.09
2022-11-18T11:34:29.178Z,100091.72
2022-11-18T11:37:09.352Z,100113.53
2022-11-18T11:39:53.129Z,100100.41
2022-11-18T11:42:53.006Z,100098.66
2022-11-18T11:45:33.722Z,100096.03
2022-11-18T11:48:31.139Z,100101.28
2022-11-18T11:51:11.777Z,100102.16
2022-11-18T11:53:54.991Z,100108.28
2022-11-18T11:56:34.779Z,100108.28
2022-11-18T11:59:44.753Z,100112.66
2022-11-18T12:02:35.468Z,100104.84
2022-11-18T12:05:28.885Z,100121.44
2022-11-18T12:08:01.625Z,100112.69
2022-11-18T12:10:47.329Z,100122.31
2022-11-18T12:13:30.420Z,100117.06
2022-11-18T12:16:18.326Z,100119.66
2022-11-18T12:19:16.769Z,100122.28
2022-11-18T12:22:00.478Z,100121.34
2022-11-18T12:24:36.344Z,100118.78
2022-11-18T12:27:29.885Z,100125.72
2022-11-18T12:30:03.713Z,100130.09
2022-11-18T12:32:43.716Z,100134.47
2022-11-18T12:35:14.950Z,100139.66
2022-11-18T12:37:52.171Z,100140.56
2022-11-18T12:40:34.097Z,100137.97
2022-11-18T12:43:44.228Z,100147.56
2022-11-18T12:46:31.027Z,100148.47
2022-11-18T12:49:31.433Z,100152.81
2022-11-18T12:52:39.510Z,100159.81
2022-11-18T12:55:19.287Z,100153.72
2022-11-18T12:57:51.772Z,100151.06
2022-11-18T13:00:23.092Z,100166.84
2022-11-18T13:02:59.733Z,100165.13
2022-11-18T13:05:33.895Z,100156.41
2022-11-18T13:08:17.954Z,100160.78
2022-11-18T13:11:14.716Z,100168.63
2022-11-18T13:13:46.498Z,100177.34
2022-11-18T13:16:40.448Z,100177.34
2022-11-18T13:19:21.957Z,100168.56
2022-11-18T13:22:13.598Z,100165.91
2022-11-18T13:24:47.824Z,100173.81
2022-11-18T13:27:27.853Z,100173.81
2022-11-18T13:30:13.318Z,100175.56
2022-11-18T13:32:46.595Z,100191.31
2022-11-18T13:35:21.366Z,100178.22
2022-11-18T13:37:59.430Z,100192.19
2022-11-18T13:40:38.777Z,100190.44
2022-11-18T13:43:11.909Z,100192.16
2022-11-18T13:45:43.297Z,100198.28
2022-11-18T13:48:15.089Z,100200.88
2022-11-18T13:50:55.063Z,100192.09
2022-11-18T13:53:38.178Z,100194.69
2022-11-18T13:56:20.269Z,100206.03
2022-11-18T13:59:16.334Z,100211.25
2022-11-18T14:01:54.928Z,100220.84
2022-11-18T14:04:30.245Z,100219.94
2022-11-18T14:07:33.013Z,100230.44
2022-11-18T14:10:07.483Z,100224.31
2022-11-18T14:12:38.835Z,100218.16
2022-11-18T14:15:14.613Z,100237.41
2022-11-18T14:17:58.823Z,100235.66
2022-11-18T14:20:31.442Z,100249.63
2022-11-18T14:23:05.430Z,100231.22
2022-11-18T14:25:36.958Z,100246.97
2022-11-18T14:28:17.582Z,100251.38
2022-11-18T14:31:07.469Z,100245.22
2022-11-18T14:33:39.025Z,100253.06
2022-11-18T14:36:17.706Z,100262.63
2022-11-18T14:39:19.219Z,100252.97
2022-11-18T14:41:48.565Z,100262.59
2022-11-18T14:44:21.688Z,100272.19
2022-11-18T14:46:57.303Z,100267.78
2022-11-18T14:49:31.413Z,100280.00
2022-11-18T14:52:04.476Z,100275.59
2022-11-18T14:54:35.772Z,100275.53
2022-11-18T14:57:10.917Z,100278.13
2022-11-18T14:59:42.801Z,100275.41
2022-11-18T15:02:15.996Z,100273.56
2022-11-18T15:04:48.328Z,100282.16
2022-11-18T15:07:23.813Z,100280.31
2022-11-18T15:09:55.496Z,100288.06
2022-11-18T15:12:26.849Z,100280.94
2022-11-18T15:14:58.108Z,100307.94
2022-11-18T15:17:29.700Z,100302.56
2022-11-18T15:20:01.079Z,100307.66
2022-11-18T15:22:33.994Z,100310.22
2022-11-18T15:25:05.692Z,100305.69
2022-11-18T15:27:37.632Z,100318.78
2022-11-18T15:30:12.553Z,100312.53
2022-11-18T15:32:43.967Z,100317.69
2022-11-18T15:35:15.339Z,100330.69
2022-11-18T15:37:46.696Z,100326.16
2022-11-18T15:40:19.291Z,100325.22
2022-11-18T15:42:52.273Z,100334.75
2022-11-18T15:45:23.796Z,100317.19
2022-11-18T15:47:55.087Z,100327.53
2022-11-18T15:50:26.359Z,100335.31
2022-11-18T15:52:57.718Z,100334.34
2022-11-18T15:55:29.015Z,100330.78
2022-11-18T15:58:00.287Z,100335.91
2022-11-18T16:00:31.539Z,100334.03
2022-11-18T16:03:02.864Z,100338.34
2022-11-18T16:05:34.140Z,100339.94
2022-11-18T16:08:05.535Z,100343.38
2022-11-18T16:10:55.307Z,100346.81
2022-11-18T16:13:26.793Z,100347.59
2022-11-18T16:15:58.066Z,100350.97
2022-11-18T16:18:29.326Z,100357.03
2022-11-18T16:21:00.693Z,100355.19
2022-11-18T16:23:32.033Z,100366.44
2022-11-18T16:26:03.860Z,100366.28
2022-11-18T16:28:35.188Z,100364.47
2022-11-18T16:31:25.947Z,100371.50
2022-11-18T16:33:57.250Z,100381.81
2022-11-18T16:36:28.723Z,100384.34
2022-11-18T16:39:08.936Z,100382.53
2022-11-18T16:41:41.463Z,100382.50
2022-11-18T16:44:16.605Z,100391.16
2022-11-18T16:46:50.216Z,100406.72
2022-11-18T16:49:24.154Z,100407.56
2022-11-18T16:51:56.692Z,100402.28
2022-11-18T16:54:30.388Z,100411.03
2022-11-18T16:57:01.811Z,100415.28
2022-11-18T16:59:33.124Z,100416.09
2022-11-18T17:02:05.676Z,100419.50
2022-11-18T17:04:38.509Z,100417.66
2022-11-18T17:07:09.911Z,100425.53
2022-11-18T17:09:41.508Z,100422.00
2022-11-18T17:12:12.857Z,100427.97
2022-11-18T17:14:44.221Z,100430.50
2022-11-18T17:17:15.504Z,100436.59
2022-11-18T17:19:47.061Z,100437.41
2022-11-18T17:22:19.438Z,100432.13
2022-11-18T17:24:50.809Z,100437.31
2022-11-18T17:27:22.165Z,100435.50
2022-11-18T17:29:53.475Z,100441.53
2022-11-18T17:32:24.722Z,100444.97
2022-11-18T17:34:55.972Z,100442.31
2022-11-18T17:37:29.286Z,100444.03
2022-11-18T17:40:00.539Z,100445.75
2022-11-18T17:42:31.860Z,100451.81
2022-11-18T17:45:03.235Z,100440.44
2022-11-18T17:47:34.495Z,100450.06
2022-11-18T17:50:07.267Z,100448.25
2022-11-18T17:52:38.531Z,100449.91
2022-11-18T17:55:10.010Z,100450.78
2022-11-18T17:57:41.280Z,100455.91
2022-11-18T18:00:13.089Z,100449.69
2022-11-18T18:02:44.431Z,100450.59
2022-11-18T18:05:16.108Z,100453.19
2022-11-18T18:07:48.330Z,100456.66
2022-11-18T18:10:20.045Z,100464.53
2022-11-18T18:13:09.979Z,100472.44
2022-11-18T18:15:41.301Z,100473.31
2022-11-18T18:18:12.727Z,100479.25
2022-11-18T18:20:43.992Z,100477.44
2022-11-18T18:23:15.370Z,100490.44
2022-11-18T18:25:46.707Z,100490.44
2022-11-18T18:28:18.540Z,100503.44
2022-11-18T18:30:57.964Z,100500.72
2022-11-18T18:33:29.495Z,100509.41
2022-11-18T18:36:02.044Z,100513.75
2022-11-18T18:38:35.353Z,100511.91
2022-11-18T18:41:10.004Z,100516.19
2022-11-18T18:43:41.688Z,100521.28
2022-11-18T18:46:29.304Z,100516.00
2022-11-18T18:49:09.359Z,100518.44
2022-11-18T18:51:45.382Z,100524.41
2022-11-18T18:54:19.824Z,100533.03
2022-11-18T18:56:53.418Z,100530.31
2022-11-18T18:59:24.794Z,100538.91
2022-11-18T19:01:56.132Z,100542.50
2022-11-18T19:04:27.519Z,100531.94
2022-11-18T19:07:00.274Z,100529.38
2022-11-18T19:09:36.296Z,100539.81
2022-11-18T19:12:28.272Z,100534.38
2022-11-18T19:14:59.716Z,100540.47
2022-11-18T19:17:31.195Z,100542.94
2022-11-18T19:20:20.908Z,100556.94
2022-11-18T19:22:52.321Z,100553.28
2022-11-18T19:25:23.710Z,100562.88
2022-11-18T19:27:55.033Z,100552.34
2022-11-18T19:30:26.979Z,100560.16
2022-11-18T19:32:58.855Z,100564.47
2022-11-18T19:35:30.234Z,100560.94
2022-11-18T19:38:01.730Z,100556.50
2022-11-18T19:40:34.199Z,100557.41
2022-11-18T19:43:05.486Z,100559.09
2022-11-18T19:45:36.982Z,100571.34
2022-11-18T19:48:08.253Z,100566.09
2022-11-18T19:50:39.629Z,100573.03
2022-11-18T19:53:29.799Z,100584.31
2022-11-18T19:56:09.335Z,100575.59
2022-11-18T19:58:42.426Z,100578.31
2022-11-18T20:01:22.719Z,100586.97
2022-11-18T20:03:59.905Z,100584.34
2022-11-18T20:06:31.844Z,100586.97
2022-11-18T20:09:06.899Z,100597.38
2022-11-18T20:11:38.477Z,100586.06
2022-11-18T20:14:11.142Z,100594.03
2022-11-18T20:16:42.588Z,100594.06
2022-11-18T20:19:15.243Z,100586.13
2022-11-18T20:21:48.060Z,100586.97
2022-11-18T20:24:19.496Z,100589.47
2022-11-18T20:26:51.964Z,100593.88
2022-11-18T20:29:23.383Z,100583.34
2022-11-18T20:31:55.913Z,100595.50
2022-11-18T20:34:27.367Z,100595.50
2022-11-18T20:36:58.750Z,100599.03
2022-11-18T20:39:30.034Z,100598.28
2022-11-18T20:42:19.793Z,100610.47
2022-11-18T20:44:51.130Z,100596.44
2022-11-18T20:47:22.414Z,100609.44
2022-11-18T20:49:53.914Z,100606.81
2022-11-18T20:52:25.237Z,100612.78
2022-11-18T20:55:00.117Z,100607.50
2022-11-18T20:57:33.972Z,100615.25
2022-11-18T21:00:05.935Z,100615.06
2022-11-18T21:02:37.197Z,100622.84
2022-11-18T21:05:09.752Z,100642.66
2022-11-18T21:07:41.149Z,100636.41
2022-11-18T21:10:12.573Z,100644.09
2022-11-18T21:13:03.896Z,100648.41
2022-11-18T21:15:35.544Z,100645.69
2022-11-18T21:18:06.897Z,100647.09
2022-11-18T21:20:57.040Z,100659.41
2022-11-18T21:23:28.376Z,100665.34
2022-11-18T21:26:00.824Z,100669.63
2022-11-18T21:28:32.101Z,100663.38
2022-11-18T21:31:03.511Z,100668.59
2022-11-18T21:33:34.833Z,100678.09
2022-11-18T21:36:06.505Z,100678.81
2022-11-18T21:38:37.763Z,100669.00
2022-11-18T21:41:09.695Z,100678.72
2022-11-18T21:44:04.551Z,100673.28
2022-11-18T21:46:34.483Z,100684.66
2022-11-18T21:49:06.155Z,100687.97
2022-11-18T21:51:37.713Z,100679.16
2022-11-18T21:54:09.233Z,100678.09
2022-11-18T21:56:40.604Z,100681.44
2022-11-18T21:59:11.996Z,100694.47
2022-11-18T22:01:43.316Z,100691.72
2022-11-18T22:04:34.576Z,100688.91
2022-11-18T22:07:06.010Z,100707.16
2022-11-18T22:09:37.335Z,100703.53
2022-11-18T22:12:09.091Z,100701.69
2022-11-18T22:14:41.140Z,100704.19
2022-11-18T22:17:12.396Z,100698.88
2022-11-18T22:19:43.692Z,100704.81
2022-11-18T22:22:15.550Z,100703.91
2022-11-18T22:24:46.810Z,100702.03
2022-11-18T22:27:18.086Z,100701.28
2022-11-18T22:29:49.348Z,100702.00
2022-11-18T22:32:20.608Z,100708.06
2022-11-18T22:34:52.047Z,100706.25
2022-11-18T22:37:23.362Z,100714.75
2022-11-18T22:39:54.680Z,100715.59
2022-11-18T22:42:44.573Z,100721.66
2022-11-18T22:45:16.428Z,100708.69
2022-11-18T22:47:47.746Z,100712.88
2022-11-18T22:50:19.231Z,100717.19
2022-11-18T22:52:50.512Z,100710.88
2022-11-18T22:55:21.826Z,100725.63
2022-11-18T22:57:53.122Z,100721.28
2022-11-18T23:00:24.466Z,100722.03
2022-11-18T23:02:55.724Z,100733.31
2022-11-18T23:05:27.055Z,100718.47
2022-11-18T23:07:58.420Z,100739.22
2022-11-18T23:10:30.342Z,100733.88
2022-11-18T23:13:20.421Z,100739.06
2022-11-18T23:15:51.706Z,100753.63
2022-11-18T23:18:23.079Z,100755.16
2022-11-18T23:21:02.016Z,100755.13
2022-11-18T23:23:33.395Z,100771.69
2022-11-18T23:26:13.093Z,100766.38
2022-11-18T23:28:44.645Z,100768.16
2022-11-18T23:31:18.837Z,100765.56
2022-11-18T23:33:50.614Z,100767.22
2022-11-18T23:36:22.639Z,100759.31
2022-11-18T23:38:54.119Z,100773.34
2022-11-18T23:41:25.396Z,100766.25
2022-11-18T23:43:56.727Z,100767.97
2022-11-18T23:46:28.062Z,100771.25
2022-11-18T23:48:59.338Z,100772.06
2022-11-18T23:51:30.679Z,100776.50
2022-11-18T23:54:02.023Z,100780.75
2022-11-18T23:56:37.766Z,100769.38
2022-11-18T23:59:09.596Z,100776.44
